createdAt,value
2018-07-09T00:00:22.381Z,21.3
2018-07-09T00:01:02.840Z,21.24
2018-07-09T00:01:43.208Z,21.28
2018-07-09T00:02:23.652Z,21.24
2018-07-09T00:03:04.087Z,21.22
2018-07-09T00:03:44.456Z,21.11
2018-07-09T00:04:24.884Z,21.19
2018-07-09T00:05:05.288Z,21.19
2018-07-09T00:05:45.734Z,21.22
2018-07-09T00:06:26.094Z,21.24
2018-07-09T00:07:06.504Z,21.26
2018-07-09T00:07:46.946Z,21.22
2018-07-09T00:08:27.317Z,21.26
2018-07-09T00:09:07.745Z,21.26
2018-07-09T00:09:48.182Z,21.28
2018-07-09T00:10:28.594Z,21.24
2018-07-09T00:11:09.063Z,21.26
2018-07-09T00:11:49.509Z,21.26
2018-07-09T00:12:29.891Z,21.27
2018-07-09T00:13:10.309Z,21.26
2018-07-09T00:13:50.745Z,21.28
2018-07-09T00:14:31.106Z,21.38
2018-07-09T00:15:11.502Z,21.28
2018-07-09T00:15:51.936Z,21.28
2018-07-09T00:16:32.348Z,21.34
2018-07-09T00:17:12.759Z,21.3
2018-07-09T00:17:53.183Z,21.31
2018-07-09T00:18:33.574Z,21.38
2018-07-09T00:19:13.999Z,21.24
2018-07-09T00:19:54.455Z,21.34
2018-07-09T00:20:34.906Z,21.26
2018-07-09T00:21:15.335Z,21.24
2018-07-09T00:21:55.743Z,21.31
2018-07-09T00:22:36.141Z,21.33
2018-07-09T00:23:16.563Z,21.31
2018-07-09T00:23:56.978Z,21.27
2018-07-09T00:24:37.329Z,21.26
2018-07-09T00:25:17.783Z,21.27
2018-07-09T00:25:58.177Z,21.27
2018-07-09T00:26:38.639Z,21.21
2018-07-09T00:27:19.106Z,21.26
2018-07-09T00:28:00.089Z,21.24
2018-07-09T00:28:40.609Z,21.19
2018-07-09T00:29:20.913Z,21.22
2018-07-09T00:30:01.329Z,21.11
2018-07-09T00:31:54.579Z,21.15
2018-07-09T00:32:42.401Z,21.21
2018-07-09T00:33:20.697Z,21.13
2018-07-09T00:34:01.716Z,21.16
2018-07-09T00:34:42.184Z,21.11
2018-07-09T00:35:22.540Z,21.18
2018-07-09T00:36:02.978Z,21.12
2018-07-09T00:36:43.359Z,21.15
2018-07-09T00:37:23.817Z,21.16
2018-07-09T00:38:04.304Z,21.03
2018-07-09T00:38:44.671Z,21.13
2018-07-09T00:41:00.964Z,21.05
2018-07-09T00:43:41.283Z,21.01
2018-07-09T00:44:22.248Z,21.01
2018-07-09T00:45:02.726Z,21.03
2018-07-09T00:45:43.275Z,20.94
2018-07-09T00:46:23.766Z,20.88
2018-07-09T00:47:04.314Z,20.94
2018-07-09T00:47:44.753Z,20.9
2018-07-09T00:48:25.203Z,20.87
2018-07-09T00:49:05.732Z,20.87
2018-07-09T00:49:45.933Z,20.88
2018-07-09T00:50:26.414Z,20.87
2018-07-09T00:51:07.515Z,20.87
2018-07-09T00:51:47.822Z,20.81
2018-07-09T00:52:28.301Z,20.78
2018-07-09T00:53:08.617Z,20.76
2018-07-09T00:53:49.108Z,20.78
2018-07-09T00:54:29.531Z,20.71
2018-07-09T00:55:09.960Z,20.71
2018-07-09T00:55:50.385Z,20.71
2018-07-09T00:56:30.826Z,20.75
2018-07-09T00:57:11.208Z,20.78
2018-07-09T00:57:51.628Z,20.69
2018-07-09T00:58:32.028Z,20.69
2018-07-09T00:59:12.441Z,20.75
2018-07-09T00:59:52.869Z,20.64
2018-07-09T01:00:33.309Z,20.68
2018-07-09T01:01:13.678Z,20.66
2018-07-09T01:03:31.496Z,20.61
2018-07-09T01:06:17.135Z,20.66
2018-07-09T01:06:57.490Z,20.64
2018-07-09T01:07:37.877Z,20.63
2018-07-09T01:08:18.339Z,20.6
2018-07-09T01:08:58.733Z,20.57
2018-07-09T01:09:39.205Z,20.48
2018-07-09T01:11:54.543Z,20.5
2018-07-09T01:12:40.998Z,20.41
2018-07-09T01:14:42.202Z,20.41
2018-07-09T01:15:22.622Z,20.46
2018-07-09T01:16:03.011Z,20.46
2018-07-09T01:16:43.367Z,20.33
2018-07-09T01:17:23.964Z,20.38
2018-07-09T01:18:04.370Z,20.42
2018-07-09T01:18:45.040Z,20.41
2018-07-09T01:19:25.509Z,20.4
2018-07-09T01:20:05.848Z,20.42
2018-07-09T01:20:46.247Z,20.3
2018-07-09T01:21:26.896Z,20.31
2018-07-09T01:22:07.236Z,20.3
2018-07-09T01:22:47.653Z,20.37
2018-07-09T01:23:28.031Z,20.31
2018-07-09T01:24:08.496Z,20.37
2018-07-09T01:24:49.559Z,20.26
2018-07-09T01:25:29.968Z,20.31
2018-07-09T01:26:10.335Z,20.31
2018-07-09T01:26:50.694Z,20.34
2018-07-09T01:27:31.116Z,20.34
2018-07-09T01:28:11.542Z,20.33
2018-07-09T01:28:52.006Z,20.33
2018-07-09T01:29:32.310Z,20.27
2018-07-09T01:30:13.150Z,20.3
2018-07-09T01:30:53.498Z,20.23
2018-07-09T01:31:33.996Z,20.25
2018-07-09T01:32:14.281Z,20.25
2018-07-09T01:32:54.782Z,20.2
2018-07-09T01:33:35.144Z,20.1
2018-07-09T01:34:15.832Z,20.1
2018-07-09T01:34:56.261Z,20.1
2018-07-09T01:35:36.670Z,20.13
2018-07-09T01:36:17.109Z,20.15
2018-07-09T01:36:57.503Z,20.1
2018-07-09T01:37:37.877Z,20.16
2018-07-09T01:38:18.300Z,20.07
2018-07-09T01:38:58.726Z,20.07
2018-07-09T01:39:39.079Z,20.1
2018-07-09T01:40:19.462Z,20.05
2018-07-09T01:40:59.909Z,20.1
2018-07-09T01:41:40.286Z,20.07
2018-07-09T01:42:20.678Z,20.1
2018-07-09T01:43:01.115Z,20.07
2018-07-09T01:43:41.586Z,20.02
2018-07-09T01:44:21.977Z,20.01
2018-07-09T01:45:02.420Z,20.07
2018-07-09T01:45:42.840Z,20.08
2018-07-09T01:46:23.318Z,20.04
2018-07-09T01:47:03.700Z,20.08
2018-07-09T01:47:44.092Z,20.07
2018-07-09T01:48:24.499Z,20.12
2018-07-09T01:49:04.966Z,20.02
2018-07-09T01:49:45.465Z,20.01
2018-07-09T01:50:25.793Z,20.12
2018-07-09T01:51:06.196Z,20.1
2018-07-09T01:51:46.590Z,19.94
2018-07-09T01:52:27.006Z,20.01
2018-07-09T01:53:07.356Z,20.05
2018-07-09T01:53:47.799Z,20.01
2018-07-09T01:54:28.160Z,20.1
2018-07-09T01:55:08.596Z,20
2018-07-09T01:55:48.995Z,20.05
2018-07-09T01:56:29.464Z,20.08
2018-07-09T01:57:09.828Z,20.08
2018-07-09T01:59:01.323Z,20.04
2018-07-09T01:59:41.747Z,20
2018-07-09T02:00:22.650Z,20.07
2018-07-09T02:01:02.934Z,20.02
2018-07-09T02:01:43.386Z,20.07
2018-07-09T02:02:23.833Z,20
2018-07-09T02:03:04.270Z,20.04
2018-07-09T02:03:44.669Z,20
2018-07-09T02:04:25.080Z,19.87
2018-07-09T02:05:05.458Z,19.9
2018-07-09T02:05:45.924Z,19.9
2018-07-09T02:06:26.337Z,19.86
2018-07-09T02:07:06.755Z,19.79
2018-07-09T02:07:47.281Z,19.76
2018-07-09T02:10:02.792Z,19.79
2018-07-09T02:10:42.480Z,19.78
2018-07-09T02:11:22.868Z,19.75
2018-07-09T02:12:03.260Z,19.78
2018-07-09T02:12:43.668Z,19.83
2018-07-09T02:13:24.048Z,19.85
2018-07-09T02:14:04.450Z,19.8
2018-07-09T02:14:44.980Z,19.71
2018-07-09T02:15:25.362Z,19.83
2018-07-09T02:16:05.803Z,19.82
2018-07-09T02:16:46.218Z,19.8
2018-07-09T02:17:26.614Z,19.8
2018-07-09T02:18:07.032Z,19.8
2018-07-09T02:18:47.419Z,19.71
2018-07-09T02:19:27.817Z,19.72
2018-07-09T02:20:08.216Z,19.67
2018-07-09T02:20:48.651Z,19.85
2018-07-09T02:21:29.092Z,19.78
2018-07-09T02:22:09.462Z,19.65
2018-07-09T02:22:50.181Z,19.83
2018-07-09T02:23:30.546Z,19.65
2018-07-09T02:24:10.953Z,19.76
2018-07-09T02:24:51.374Z,19.71
2018-07-09T02:25:31.832Z,19.71
2018-07-09T02:26:12.240Z,19.75
2018-07-09T02:26:52.630Z,19.78
2018-07-09T02:27:33.073Z,19.62
2018-07-09T02:28:13.430Z,19.86
2018-07-09T02:28:53.924Z,19.7
2018-07-09T02:29:34.390Z,19.76
2018-07-09T02:30:14.684Z,19.82
2018-07-09T02:30:55.091Z,19.71
2018-07-09T02:31:35.594Z,19.7
2018-07-09T02:32:15.930Z,19.71
2018-07-09T02:32:56.344Z,19.7
2018-07-09T02:33:36.882Z,19.7
2018-07-09T02:34:17.203Z,19.7
2018-07-09T02:34:57.579Z,19.75
2018-07-09T02:35:37.927Z,19.76
2018-07-09T02:36:18.330Z,19.71
2018-07-09T02:36:58.805Z,19.78
2018-07-09T02:37:39.168Z,19.68
2018-07-09T02:38:19.585Z,19.75
2018-07-09T02:39:00.133Z,19.71
2018-07-09T02:39:40.428Z,19.6
2018-07-09T02:40:20.877Z,19.6
2018-07-09T02:41:01.266Z,19.6
2018-07-09T02:41:41.653Z,19.6
2018-07-09T02:42:22.114Z,19.55
2018-07-09T02:43:02.676Z,19.52
2018-07-09T02:43:42.946Z,19.55
2018-07-09T02:44:23.416Z,19.49
2018-07-09T02:46:17.468Z,19.46
2018-07-09T02:46:57.853Z,19.47
2018-07-09T02:47:38.289Z,19.5
2018-07-09T02:48:18.675Z,19.52
2018-07-09T02:48:59.190Z,19.52
2018-07-09T02:49:39.547Z,19.52
2018-07-09T02:50:19.961Z,19.52
2018-07-09T02:51:00.363Z,19.5
2018-07-09T02:51:40.789Z,19.45
2018-07-09T02:52:21.211Z,19.42
2018-07-09T02:53:01.621Z,19.4
2018-07-09T02:53:42.049Z,19.39
2018-07-09T02:54:22.415Z,19.39
2018-07-09T02:55:02.823Z,19.35
2018-07-09T02:55:43.262Z,19.28
2018-07-09T02:56:23.697Z,19.27
2018-07-09T02:57:04.094Z,19.35
2018-07-09T02:57:44.524Z,19.35
2018-07-09T02:58:25.004Z,19.34
2018-07-09T02:59:05.339Z,19.24
2018-07-09T02:59:45.861Z,19.35
2018-07-09T03:00:26.271Z,19.28
2018-07-09T03:01:06.832Z,19.31
2018-07-09T03:01:46.995Z,19.39
2018-07-09T03:02:27.405Z,19.34
2018-07-09T03:03:07.833Z,19.32
2018-07-09T03:03:48.207Z,19.25
2018-07-09T03:04:28.569Z,19.34
2018-07-09T03:05:08.974Z,19.35
2018-07-09T03:05:49.440Z,19.3
2018-07-09T03:06:29.764Z,19.24
2018-07-09T03:07:10.165Z,19.31
2018-07-09T03:07:50.581Z,19.27
2018-07-09T03:08:31.068Z,19.25
2018-07-09T03:09:11.846Z,19.21
2018-07-09T03:09:51.955Z,19.23
2018-07-09T03:10:32.417Z,19.21
2018-07-09T03:11:12.889Z,19.28
2018-07-09T03:11:53.276Z,19.21
2018-07-09T03:12:33.715Z,19.2
2018-07-09T03:13:16.171Z,19.13
2018-07-09T03:13:56.550Z,19.21
2018-07-09T03:14:36.978Z,19.23
2018-07-09T03:15:17.488Z,19.16
2018-07-09T03:15:57.778Z,19.24
2018-07-09T03:16:38.210Z,19.17
2018-07-09T03:17:18.611Z,19.2
2018-07-09T03:17:59.398Z,19.21
2018-07-09T03:18:39.660Z,19.23
2018-07-09T03:19:20.079Z,19.15
2018-07-09T03:20:00.507Z,19.1
2018-07-09T03:20:40.942Z,19.15
2018-07-09T03:21:21.404Z,19.1
2018-07-09T03:22:01.761Z,19.1
2018-07-09T03:22:42.272Z,19.1
2018-07-09T03:23:22.583Z,19.13
2018-07-09T03:24:03.047Z,19.1
2018-07-09T03:24:43.387Z,19.12
2018-07-09T03:25:23.913Z,19.13
2018-07-09T03:26:04.267Z,19.16
2018-07-09T03:26:44.685Z,19.17
2018-07-09T03:27:25.181Z,19.13
2018-07-09T03:28:05.493Z,19.13
2018-07-09T03:28:45.888Z,19.15
2018-07-09T03:29:26.392Z,19.09
2018-07-09T03:30:06.770Z,19.09
2018-07-09T03:30:47.217Z,19.15
2018-07-09T03:31:27.559Z,19.12
2018-07-09T03:32:07.948Z,19.16
2018-07-09T03:32:48.365Z,19.1
2018-07-09T03:33:28.773Z,19.1
2018-07-09T03:34:09.244Z,19.02
2018-07-09T03:34:49.726Z,19.09
2018-07-09T03:35:30.139Z,19.12
2018-07-09T03:36:10.673Z,18.97
2018-07-09T03:36:51.028Z,19.02
2018-07-09T03:37:31.449Z,19.09
2018-07-09T03:38:11.938Z,19.05
2018-07-09T03:38:52.226Z,19.12
2018-07-09T03:39:32.674Z,19.15
2018-07-09T03:40:13.049Z,19.1
2018-07-09T03:40:53.585Z,19.16
2018-07-09T03:41:34.005Z,19.13
2018-07-09T03:42:14.368Z,19.09
2018-07-09T03:42:54.788Z,19.12
2018-07-09T03:43:35.205Z,19.13
2018-07-09T03:44:15.550Z,19.05
2018-07-09T03:44:55.973Z,19.06
2018-07-09T03:45:36.417Z,19.02
2018-07-09T03:46:16.869Z,19.06
2018-07-09T03:46:57.312Z,18.96
2018-07-09T03:47:37.657Z,18.94
2018-07-09T03:48:18.063Z,19.01
2018-07-09T03:48:58.534Z,19.05
2018-07-09T03:49:38.979Z,19.05
2018-07-09T03:50:19.354Z,19.01
2018-07-09T03:50:59.839Z,19.02
2018-07-09T03:51:40.171Z,18.97
2018-07-09T03:52:20.695Z,18.97
2018-07-09T03:53:00.965Z,19.05
2018-07-09T03:53:41.518Z,18.99
2018-07-09T03:54:21.883Z,19.01
2018-07-09T03:55:02.279Z,18.96
2018-07-09T03:55:42.695Z,18.99
2018-07-09T03:56:23.309Z,18.97
2018-07-09T03:57:03.537Z,19.05
2018-07-09T03:57:43.910Z,19.05
2018-07-09T03:58:24.327Z,19.07
2018-07-09T03:59:04.759Z,19.01
2018-07-09T03:59:45.210Z,19.12
2018-07-09T04:00:25.527Z,19.13
2018-07-09T04:01:06.748Z,19.17
2018-07-09T04:01:47.656Z,19.23
2018-07-09T04:02:27.653Z,19.27
2018-07-09T04:03:08.111Z,19.25
2018-07-09T04:03:48.575Z,19.28
2018-07-09T04:04:29.073Z,19.31
2018-07-09T04:42:30.108Z,21.79
2018-07-09T04:43:10.324Z,21.86
2018-07-09T04:43:50.747Z,21.99
2018-07-09T04:44:31.143Z,22.01
2018-07-09T04:45:11.491Z,21.96
2018-07-09T04:45:51.985Z,22.11
2018-07-09T04:46:32.434Z,22.27
2018-07-09T04:47:12.801Z,22.31
2018-07-09T04:47:53.215Z,22.27
2018-07-09T04:48:33.689Z,22.45
2018-07-09T04:49:14.133Z,22.59
2018-07-09T04:49:54.561Z,22.63
2018-07-09T04:50:34.957Z,22.78
2018-07-09T04:51:15.393Z,22.82
2018-07-09T04:51:55.836Z,22.88
2018-07-09T04:52:36.232Z,22.94
2018-07-09T04:53:16.647Z,23.01
2018-07-09T04:54:14.496Z,23.19
2018-07-09T04:54:54.880Z,23.35
2018-07-09T04:55:42.000Z,23.52
2018-07-09T04:56:22.389Z,23.67
2018-07-09T04:59:36.905Z,24.05
2018-07-09T05:00:16.296Z,24.19
2018-07-09T05:00:56.749Z,24.39
2018-07-09T05:01:37.131Z,24.36
2018-07-09T05:02:17.487Z,24.51
2018-07-09T05:02:57.956Z,24.6
2018-07-09T05:03:38.580Z,24.83
2018-07-09T05:04:18.827Z,24.87
2018-07-09T05:04:59.869Z,25.07
2018-07-09T05:05:40.274Z,25.02
2018-07-09T05:06:20.675Z,25.24
2018-07-09T05:07:01.283Z,25.27
2018-07-09T05:07:41.702Z,25.39
2018-07-09T05:08:22.233Z,25.54
2018-07-09T05:09:02.555Z,25.69
2018-07-09T05:09:42.944Z,25.71
2018-07-09T05:10:23.368Z,25.75
2018-07-09T05:11:03.753Z,25.9
2018-07-09T05:11:44.195Z,25.96
2018-07-09T05:12:24.625Z,26.19
2018-07-09T05:13:05.032Z,26.24
2018-07-09T05:13:45.387Z,26.29
2018-07-09T05:14:25.864Z,26.34
2018-07-09T05:15:06.372Z,26.5
2018-07-09T05:15:46.801Z,26.61
2018-07-09T05:16:27.248Z,26.81
2018-07-09T05:17:07.775Z,26.87
2018-07-09T05:17:48.051Z,26.93
2018-07-09T05:21:44.875Z,27.38
2018-07-09T05:22:27.176Z,27.49
2018-07-09T05:23:07.518Z,27.61
2018-07-09T05:23:47.945Z,27.83
2018-07-09T05:24:28.408Z,27.83
2018-07-09T05:25:09.023Z,27.93
2018-07-09T05:25:49.520Z,28.02
2018-07-09T05:26:29.847Z,28.03
2018-07-09T05:27:10.241Z,28.25
2018-07-09T05:27:50.919Z,28.2
2018-07-09T05:28:31.569Z,28.18
2018-07-09T05:29:11.973Z,28.28
2018-07-09T05:29:52.332Z,28.36
2018-07-09T05:30:32.799Z,28.3
2018-07-09T05:31:13.289Z,28.38
2018-07-09T05:31:53.967Z,28.32
2018-07-09T05:32:34.124Z,28.45
2018-07-09T05:33:14.511Z,28.6
2018-07-09T05:33:54.973Z,28.58
2018-07-09T05:34:35.705Z,28.54
2018-07-09T05:35:15.818Z,28.6
2018-07-09T05:35:56.236Z,28.46
2018-07-09T05:36:36.614Z,28.58
2018-07-09T05:37:16.977Z,28.7
2018-07-09T05:37:57.422Z,28.64
2018-07-09T05:38:37.892Z,28.74
2018-07-09T05:39:18.304Z,28.7
2018-07-09T05:39:58.903Z,28.61
2018-07-09T05:40:39.196Z,28.7
2018-07-09T05:41:19.611Z,28.64
2018-07-09T05:42:00.027Z,28.79
2018-07-09T05:42:40.660Z,28.82
2018-07-09T05:43:21.114Z,28.79
2018-07-09T05:44:01.327Z,28.91
2018-07-09T05:44:42.011Z,28.85
2018-07-09T05:45:22.359Z,28.94
2018-07-09T05:46:02.779Z,28.95
2018-07-09T05:46:43.639Z,29.03
2018-07-09T05:47:24.413Z,29
2018-07-09T05:48:04.679Z,29.08
2018-07-09T05:48:45.490Z,28.98
2018-07-09T05:49:26.193Z,29.15
2018-07-09T05:50:07.026Z,29.23
2018-07-09T05:50:47.952Z,29.23
2018-07-09T05:51:29.229Z,29.3
2018-07-09T05:52:10.450Z,29.25
2018-07-09T05:52:49.919Z,29.41
2018-07-09T05:53:30.767Z,29.23
2018-07-09T05:54:11.456Z,29.37
2018-07-09T05:54:52.175Z,29.48
2018-07-09T05:55:33.718Z,29.45
2018-07-09T05:56:14.560Z,29.52
2018-07-09T05:56:55.188Z,29.47
2018-07-09T05:57:36.119Z,29.47
2018-07-09T05:58:16.987Z,29.44
2018-07-09T05:58:59.073Z,29.3
2018-07-09T05:59:38.986Z,29.21
2018-07-09T06:00:20.456Z,29.23
2018-07-09T06:01:00.756Z,29.2
2018-07-09T06:01:41.772Z,29.25
2018-07-09T06:02:23.754Z,29.05
2018-07-09T06:03:06.259Z,29.08
2018-07-09T06:03:47.079Z,29.26
2018-07-09T06:04:27.492Z,29.35
2018-07-09T06:05:08.431Z,29.44
2018-07-09T06:05:48.885Z,29.42
2018-07-09T06:06:30.358Z,29.45
2018-07-09T06:07:10.634Z,29.55
2018-07-09T06:07:52.265Z,29.54
2018-07-09T06:08:32.342Z,29.57
2018-07-09T06:09:13.154Z,29.48
2018-07-09T06:09:53.756Z,29.52
2018-07-09T06:10:34.628Z,29.64
2018-07-09T06:11:16.364Z,29.52
2018-07-09T06:11:56.355Z,29.48
2018-07-09T06:12:37.025Z,29.6
2018-07-09T06:13:17.546Z,29.66
2018-07-09T06:13:58.030Z,29.58
2018-07-09T06:14:38.747Z,29.58
2018-07-09T06:15:19.338Z,29.51
2018-07-09T06:16:00.132Z,29.49
2018-07-09T06:16:40.989Z,29.49
2018-07-09T06:17:22.240Z,29.39
2018-07-09T06:18:02.392Z,29.26
2018-07-09T06:18:43.036Z,29.3
2018-07-09T06:19:23.649Z,29.14
2018-07-09T06:20:04.606Z,28.94
2018-07-09T06:20:45.573Z,28.65
2018-07-09T06:21:26.609Z,28.57
2018-07-09T06:22:07.528Z,28.52
2018-07-09T06:22:49.291Z,28.64
2018-07-09T06:23:29.406Z,28.6
2018-07-09T06:24:10.182Z,28.5
2018-07-09T06:24:51.742Z,28.74
2018-07-09T06:25:31.930Z,28.77
2018-07-09T06:26:12.114Z,28.87
2018-07-09T06:26:52.808Z,28.89
2018-07-09T06:27:34.438Z,28.97
2018-07-09T06:28:14.387Z,28.95
2018-07-09T06:28:56.262Z,28.97
2018-07-09T06:31:06.426Z,29.17
2018-07-09T06:31:53.411Z,29.27
2018-07-09T06:32:37.991Z,29.05
2018-07-09T06:33:18.659Z,28.98
2018-07-09T06:33:59.303Z,28.82
2018-07-09T06:34:40.889Z,28.73
2018-07-09T06:35:21.306Z,28.58
2018-07-09T06:36:01.793Z,28.54
2018-07-09T06:36:43.160Z,28.51
2018-07-09T06:37:23.531Z,28.7
2018-07-09T06:38:04.329Z,28.7
2018-07-09T06:38:45.075Z,28.95
2018-07-09T06:39:25.846Z,28.95
2018-07-09T06:40:06.481Z,28.92
2018-07-09T06:40:48.300Z,29.08
2018-07-09T06:41:28.494Z,28.97
2018-07-09T06:42:09.400Z,29.07
2018-07-09T06:42:50.396Z,29.08
2018-07-09T06:43:31.157Z,29.08
2018-07-09T06:44:11.952Z,28.97
2018-07-09T06:44:52.998Z,28.92
2018-07-09T06:45:33.665Z,28.94
2018-07-09T06:46:15.726Z,29.05
2018-07-09T06:46:55.454Z,29.14
2018-07-09T06:47:36.144Z,29.15
2018-07-09T06:48:17.581Z,29.2
2018-07-09T06:48:57.861Z,28.95
2018-07-09T06:49:38.425Z,29.03
2018-07-09T06:50:19.728Z,28.92
2018-07-09T06:51:00.443Z,29.05
2018-07-09T06:51:41.885Z,28.94
2018-07-09T06:52:22.711Z,29.02
2018-07-09T06:53:03.511Z,29.17
2018-07-09T06:53:44.553Z,29.17
2018-07-09T06:54:25.102Z,29.12
2018-07-09T06:55:05.987Z,29.18
2018-07-09T06:55:47.095Z,29
2018-07-09T06:56:28.273Z,28.97
2018-07-09T06:57:09.098Z,29.07
2018-07-09T06:57:50.080Z,29.1
2018-07-09T06:58:30.773Z,29.17
2018-07-09T06:59:11.861Z,29.2
2018-07-09T06:59:52.038Z,29.26
2018-07-09T07:00:33.050Z,29.2
2018-07-09T07:05:47.579Z,28.97
2018-07-09T07:09:03.861Z,28.79
2018-07-09T07:09:58.893Z,28.82
2018-07-09T07:11:48.781Z,28.97
2018-07-09T07:12:28.546Z,28.83
2018-07-09T07:13:09.501Z,28.89
2018-07-09T07:13:51.074Z,28.94
2018-07-09T07:14:31.378Z,28.97
2018-07-09T07:15:12.094Z,28.97
2018-07-09T07:15:52.851Z,29.08
2018-07-09T07:16:33.308Z,29.08
2018-07-09T07:17:18.899Z,28.97
2018-07-09T07:17:58.922Z,28.94
2018-07-09T07:18:39.829Z,28.79
2018-07-09T07:19:20.811Z,28.77
2018-07-09T07:20:01.757Z,28.8
2018-07-09T07:20:42.779Z,28.87
2018-07-09T07:24:05.059Z,28.95
2018-07-09T07:24:46.990Z,28.97
2018-07-09T07:25:27.965Z,28.91
2018-07-09T07:26:08.430Z,28.83
2018-07-09T07:26:48.923Z,28.98
2018-07-09T07:27:29.415Z,29.11
2018-07-09T07:28:09.881Z,28.92
2018-07-09T07:28:50.309Z,29.08
2018-07-09T07:29:31.119Z,29.18
2018-07-09T07:30:11.673Z,29.35
2018-07-09T07:30:52.772Z,29.36
2018-07-09T07:31:34.029Z,29.39
2018-07-09T07:32:14.803Z,29.44
2018-07-09T07:32:55.379Z,29.48
2018-07-09T07:33:36.786Z,29.48
2018-07-09T07:34:17.735Z,29.55
2018-07-09T07:34:58.592Z,29.64
2018-07-09T07:35:38.790Z,29.73
2018-07-09T07:36:19.451Z,29.66
2018-07-09T07:37:00.384Z,29.81
2018-07-09T07:37:41.280Z,29.88
2018-07-09T07:38:23.099Z,29.97
2018-07-09T07:39:03.822Z,30.01
2018-07-09T07:39:44.634Z,30.08
2018-07-09T07:40:25.729Z,29.97
2018-07-09T07:41:07.015Z,29.89
2018-07-09T07:41:47.720Z,29.73
2018-07-09T07:42:28.764Z,29.66
2018-07-09T07:43:09.663Z,29.71
2018-07-09T07:43:49.921Z,29.73
2018-07-09T07:44:32.140Z,29.76
2018-07-09T07:45:12.760Z,29.73
2018-07-09T07:45:54.128Z,29.71
2018-07-09T07:46:35.254Z,29.66
2018-07-09T07:47:16.409Z,29.74
2018-07-09T07:47:57.467Z,29.82
2018-07-09T07:48:38.003Z,29.69
2018-07-09T07:49:19.185Z,29.74
2018-07-09T07:49:59.394Z,29.81
2018-07-09T07:50:40.985Z,29.74
2018-07-09T07:51:20.759Z,29.85
2018-07-09T07:52:02.642Z,29.84
2018-07-09T07:52:44.783Z,29.92
2018-07-09T07:53:25.262Z,29.94
2018-07-09T07:54:05.872Z,29.97
2018-07-09T07:54:47.484Z,30.08
2018-07-09T07:55:28.370Z,30.08
2018-07-09T07:56:08.648Z,30.19
2018-07-09T07:56:49.121Z,30.28
2018-07-09T07:57:30.131Z,30.25
2018-07-09T07:58:10.863Z,30.32
2018-07-09T07:58:51.295Z,30.48
2018-07-09T07:59:32.904Z,30.46
2018-07-09T08:00:13.696Z,30.53
2018-07-09T08:00:54.053Z,30.51
2018-07-09T08:01:34.844Z,30.54
2018-07-09T08:02:15.372Z,30.57
2018-07-09T08:02:56.316Z,30.59
2018-07-09T08:03:36.820Z,30.67
2018-07-09T08:04:18.179Z,30.64
2018-07-09T08:04:58.938Z,30.36
2018-07-09T08:05:39.543Z,30.28
2018-07-09T08:06:22.172Z,30.45
2018-07-09T08:07:02.764Z,30.42
2018-07-09T08:07:43.467Z,30.45
2018-07-09T08:08:24.702Z,30.45
2018-07-09T08:09:04.747Z,30.54
2018-07-09T08:09:45.442Z,30.63
2018-07-09T08:10:26.256Z,30.67
2018-07-09T08:11:11.072Z,30.6
2018-07-09T08:11:49.192Z,30.6
2018-07-09T08:13:27.981Z,30.78
2018-07-09T08:13:51.000Z,30.72
2018-07-09T08:14:31.599Z,30.76
2018-07-09T08:15:12.028Z,30.53
2018-07-09T08:15:52.910Z,30.4
2018-07-09T08:16:33.441Z,30.3
2018-07-09T08:17:14.853Z,30.34
2018-07-09T08:17:55.300Z,30.23
2018-07-09T08:18:35.749Z,30.36
2018-07-09T08:19:16.487Z,30.26
2018-07-09T08:19:57.204Z,30.13
2018-07-09T08:20:37.640Z,30.11
2018-07-09T08:21:20.227Z,29.95
2018-07-09T08:22:00.808Z,29.85
2018-07-09T08:22:40.685Z,29.81
2018-07-09T08:23:21.791Z,29.88
2018-07-09T08:24:02.312Z,30.01
2018-07-09T08:24:42.927Z,30.13
2018-07-09T08:25:24.398Z,30.16
2018-07-09T08:26:04.977Z,30.3
2018-07-09T08:26:45.608Z,30.3
2018-07-09T08:27:26.419Z,30.25
2018-07-09T08:28:06.671Z,30.42
2018-07-09T08:28:47.458Z,30.3
2018-07-09T08:29:28.236Z,30.3
2018-07-09T08:30:09.897Z,30.53
2018-07-09T08:32:05.881Z,30.59
2018-07-09T08:32:45.073Z,30.61
2018-07-09T08:33:25.270Z,30.61
2018-07-09T08:34:06.528Z,30.67
2018-07-09T08:34:46.863Z,30.61
2018-07-09T08:35:28.013Z,30.57
2018-07-09T08:36:08.759Z,30.66
2018-07-09T08:36:49.205Z,30.72
2018-07-09T08:37:29.648Z,30.83
2018-07-09T08:38:10.080Z,30.98
2018-07-09T08:38:50.517Z,31.03
2018-07-09T08:39:31.784Z,31.01
2018-07-09T08:40:12.395Z,31.03
2018-07-09T08:40:53.260Z,31.15
2018-07-09T08:41:33.976Z,31.01
2018-07-09T08:42:14.539Z,31.04
2018-07-09T08:42:55.331Z,31.12
2018-07-09T08:43:35.832Z,31.05
2018-07-09T08:44:17.512Z,31.18
2018-07-09T08:46:22.730Z,31.1
2018-07-09T08:47:03.347Z,31.19
2018-07-09T08:47:43.496Z,31.12
2018-07-09T08:48:23.994Z,31.13
2018-07-09T08:49:04.583Z,31.1
2018-07-09T08:49:45.038Z,31.15
2018-07-09T08:50:25.521Z,31.13
2018-07-09T08:51:06.143Z,31.34
2018-07-09T08:51:46.710Z,31.37
2018-07-09T08:52:27.317Z,31.4
2018-07-09T08:53:07.900Z,31.38
2018-07-09T08:53:49.389Z,31.46
2018-07-09T08:56:03.541Z,31.45
2018-07-09T08:56:44.313Z,31.53
2018-07-09T08:57:24.136Z,31.52
2018-07-09T08:58:05.118Z,31.67
2018-07-09T08:58:45.762Z,31.65
2018-07-09T08:59:27.021Z,31.72
2018-07-09T09:00:07.163Z,31.82
2018-07-09T09:00:48.719Z,31.72
2018-07-09T09:01:29.676Z,31.65
2018-07-09T09:02:10.109Z,31.67
2018-07-09T09:02:51.508Z,31.67
2018-07-09T09:03:31.360Z,31.74
2018-07-09T09:04:12.005Z,31.72
2018-07-09T09:04:52.482Z,31.76
2018-07-09T09:05:33.191Z,31.76
2018-07-09T09:06:13.480Z,31.85
2018-07-09T09:06:54.023Z,31.74
2018-07-09T09:07:34.789Z,31.56
2018-07-09T09:08:15.781Z,31.56
2018-07-09T09:08:57.786Z,31.57
2018-07-09T09:09:38.332Z,31.56
2018-07-09T09:10:19.881Z,31.68
2018-07-09T09:10:59.654Z,31.67
2018-07-09T09:11:40.148Z,31.72
2018-07-09T09:12:20.879Z,31.75
2018-07-09T09:13:01.575Z,31.78
2018-07-09T09:13:42.572Z,31.92
2018-07-09T09:14:23.054Z,31.9
2018-07-09T09:15:03.588Z,31.92
2018-07-09T09:15:44.502Z,31.95
2018-07-09T09:16:24.777Z,31.99
2018-07-09T09:17:06.015Z,32.02
2018-07-09T09:17:47.288Z,31.9
2018-07-09T09:18:27.855Z,32.02
2018-07-09T09:20:25.351Z,31.92
2018-07-09T09:21:05.983Z,32.03
2018-07-09T09:21:46.311Z,32.19
2018-07-09T09:22:26.753Z,32.34
2018-07-09T09:23:07.707Z,32.36
2018-07-09T09:23:47.870Z,32.41
2018-07-09T09:24:28.233Z,32.5
2018-07-09T09:25:09.046Z,32.43
2018-07-09T09:25:49.423Z,32.47
2018-07-09T09:26:30.011Z,32.34
2018-07-09T09:27:11.881Z,32.35
2018-07-09T09:27:52.169Z,32.46
2018-07-09T09:28:32.835Z,32.51
2018-07-09T09:34:44.896Z,32.8
2018-07-09T09:35:24.421Z,32.84
2018-07-09T09:36:04.433Z,32.95
2018-07-09T09:36:45.197Z,33.11
2018-07-09T09:37:26.301Z,33.28
2018-07-09T09:38:07.911Z,33.35
2018-07-09T09:38:48.230Z,33.22
2018-07-09T09:39:30.429Z,33.34
2018-07-09T09:40:11.597Z,33.35
2018-07-09T09:40:53.117Z,33.33
2018-07-09T09:41:34.411Z,33.33
2018-07-09T09:42:14.708Z,33.33
2018-07-09T09:42:56.420Z,33.33
2018-07-09T09:43:36.309Z,33.33
2018-07-09T09:44:17.402Z,33.33
2018-07-09T09:44:58.339Z,33.2
2018-07-09T09:45:39.424Z,33.12
2018-07-09T09:46:19.554Z,33.17
2018-07-09T09:47:00.988Z,33.22
2018-07-09T09:47:41.918Z,33.43
2018-07-09T09:48:21.960Z,33.28
2018-07-09T09:49:02.616Z,33.21
2018-07-09T09:49:44.119Z,33.24
2018-07-09T09:50:25.441Z,33.15
2018-07-09T09:51:05.373Z,33.11
2018-07-09T09:51:46.924Z,32.96
2018-07-09T09:52:28.539Z,32.95
2018-07-09T09:53:09.005Z,32.99
2018-07-09T09:53:49.569Z,33.03
2018-07-09T09:54:29.884Z,33.02
2018-07-09T09:55:10.328Z,32.88
2018-07-09T09:55:50.729Z,32.96
2018-07-09T09:56:31.252Z,32.93
2018-07-09T09:57:11.724Z,33.14
2018-07-09T09:57:52.171Z,33.14
2018-07-09T09:58:32.796Z,33.35
2018-07-09T09:59:13.226Z,33.2
2018-07-09T09:59:53.666Z,33.28
2018-07-09T10:00:34.163Z,33.4
2018-07-09T10:01:14.891Z,33.49
2018-07-09T10:01:55.273Z,33.45
2018-07-09T10:02:35.933Z,33.77
2018-07-09T10:03:16.517Z,33.86
2018-07-09T10:03:57.269Z,33.89
2018-07-09T10:04:37.961Z,33.89
2018-07-09T10:05:18.437Z,33.94
2018-07-09T10:44:25.816Z,33.65
2018-07-09T10:45:04.888Z,33.65
2018-07-09T10:45:45.361Z,33.6
2018-07-09T10:46:27.406Z,33.66
2018-07-09T10:47:08.701Z,33.63
2018-07-09T10:47:49.969Z,33.59